Trine Charlotte — LMRY — position and weather

sailwx.info

Track history (hours):
 
Tides and Currents Weather Stations Pressure Air Temp Water Temp Dewpoint Dewpoint Depression Visibility Wind Speed Wind Dir Waves Ship Positions

Trine Charlotte

Last reported at 2015-Mar-03 12:33 UTC. Time now 2015-Mar-03 12:42 UTC.
Position N 70°40' E 023°37'.

Length 66 m; draft 4.6 m.

Type: Cargo ship. MMSI: 257233000.

Date/timePositionNaut miles runAvg speedWind from/ knotsBaromVisibWave heightAir tempDewpointWater temp
2015-Mar-03 12:33N 70°40' E 023°37'  
2015-Feb-27 17:34N 70°42' E 023°29'10 9.7
2015-Feb-27 16:34N 70°35' E 023°09'9 9.4
2015-Feb-27 15:33N 70°29' E 022°45'89 3.7
2015-Feb-26 15:29N 69°43' E 019°04'4 4.0
2015-Feb-26 14:33N 69°40' E 018°58'0 0.0
2015-Feb-26 13:32N 69°40' E 018°58'0 0.0
2015-Feb-26 12:34N 69°40' E 018°58'0 0.0
2015-Feb-26 11:33N 69°40' E 018°58'0 0.0
2015-Feb-26 10:34N 69°40' E 018°58'0 0.0
2015-Feb-26 09:33N 69°40' E 018°58'153 4.5
2015-Feb-24 23:33N 67°37' E 014°46'21 9.2
2015-Feb-24 21:18N 67°26' E 015°31'4 6.1
2015-Feb-24 20:34N 67°22' E 015°35'0 0.0
2015-Feb-24 19:34N 67°22' E 015°35'0 0.0
2015-Feb-24 18:33N 67°22' E 015°35'0 0.0
2015-Feb-24 17:33N 67°22' E 015°35'0 0.0
2015-Feb-24 16:33N 67°22' E 015°35'0 0.0
2015-Feb-24 15:34N 67°22' E 015°35'0 0.0
2015-Feb-24 14:34N 67°22' E 015°35'0 0.4
2015-Feb-24 13:33N 67°22' E 015°36'9 8.6
2015-Feb-24 12:33N 67°30' E 015°26'13 0.3
2015-Feb-23 00:32N 67°36' E 014°58'12 9.6
2015-Feb-22 23:19N 67°31' E 015°24'7 9.0
2015-Feb-22 22:34N 67°25' E 015°33'3 2.8
2015-Feb-22 21:34N 67°22' E 015°35'0 0.0
2015-Feb-22 20:34N 67°22' E 015°35'0 0.0
2015-Feb-22 19:33N 67°22' E 015°35'0 0.0
2015-Feb-22 18:33N 67°22' E 015°35'0 0.0
2015-Feb-22 17:34N 67°22' E 015°35'0 0.0
2015-Feb-22 16:34N 67°22' E 015°35'0 0.0
2015-Feb-22 15:34N 67°22' E 015°35'0 0.0
2015-Feb-22 14:33N 67°22' E 015°35'0 0.0
2015-Feb-22 13:33N 67°22' E 015°35'0 0.0
2015-Feb-22 12:34N 67°22' E 015°35'0 0.0
2015-Feb-22 11:34N 67°22' E 015°35'8 7.8
2015-Feb-22 10:34N 67°29' E 015°29'18 9.0
2015-Feb-22 08:30N 67°37' E 014°45'  
Track history (hours):
 
Tides and Currents Weather Stations Pressure Air Temp Water Temp Dewpoint Dewpoint Depression Visibility Wind Speed Wind Dir Waves Ship Positions

Trine Charlotte

Last reported at 2015-Mar-03 12:33 UTC. Time now 2015-Mar-03 12:42 UTC.
Position N 70°40' E 023°37'.

Length 66 m; draft 4.6 m.

Type: Cargo ship. MMSI: 257233000.

Date/timePositionNaut miles runAvg speedWind from/ knotsBaromVisibWave heightAir tempDewpointWater temp
2015-Mar-03 12:33N 70°40' E 023°37'  
2015-Feb-27 17:34N 70°42' E 023°29'10 9.7
2015-Feb-27 16:34N 70°35' E 023°09'9 9.4
2015-Feb-27 15:33N 70°29' E 022°45'89 3.7
2015-Feb-26 15:29N 69°43' E 019°04'4 4.0
2015-Feb-26 14:33N 69°40' E 018°58'0 0.0
2015-Feb-26 13:32N 69°40' E 018°58'0 0.0
2015-Feb-26 12:34N 69°40' E 018°58'0 0.0
2015-Feb-26 11:33N 69°40' E 018°58'0 0.0
2015-Feb-26 10:34N 69°40' E 018°58'0 0.0
2015-Feb-26 09:33N 69°40' E 018°58'153 4.5
2015-Feb-24 23:33N 67°37' E 014°46'21 9.2
2015-Feb-24 21:18N 67°26' E 015°31'4 6.1
2015-Feb-24 20:34N 67°22' E 015°35'0 0.0
2015-Feb-24 19:34N 67°22' E 015°35'0 0.0
2015-Feb-24 18:33N 67°22' E 015°35'0 0.0
2015-Feb-24 17:33N 67°22' E 015°35'0 0.0
2015-Feb-24 16:33N 67°22' E 015°35'0 0.0
2015-Feb-24 15:34N 67°22' E 015°35'0 0.0
2015-Feb-24 14:34N 67°22' E 015°35'0 0.4
2015-Feb-24 13:33N 67°22' E 015°36'9 8.6
2015-Feb-24 12:33N 67°30' E 015°26'13 0.3
2015-Feb-23 00:32N 67°36' E 014°58'12 9.6
2015-Feb-22 23:19N 67°31' E 015°24'7 9.0
2015-Feb-22 22:34N 67°25' E 015°33'3 2.8
2015-Feb-22 21:34N 67°22' E 015°35'0 0.0
2015-Feb-22 20:34N 67°22' E 015°35'0 0.0
2015-Feb-22 19:33N 67°22' E 015°35'0 0.0
2015-Feb-22 18:33N 67°22' E 015°35'0 0.0
2015-Feb-22 17:34N 67°22' E 015°35'0 0.0
2015-Feb-22 16:34N 67°22' E 015°35'0 0.0
2015-Feb-22 15:34N 67°22' E 015°35'0 0.0
2015-Feb-22 14:33N 67°22' E 015°35'0 0.0
2015-Feb-22 13:33N 67°22' E 015°35'0 0.0
2015-Feb-22 12:34N 67°22' E 015°35'0 0.0
2015-Feb-22 11:34N 67°22' E 015°35'8 7.8
2015-Feb-22 10:34N 67°29' E 015°29'18 9.0
2015-Feb-22 08:30N 67°37' E 014°45'  

Dump ship's entire track history